Time;durP1;ratioP1;P1;durP2;ratioP2;P2;SDS_P1;SDS_P2;PMS_P1;PMS_P2;Temp;Humidity;BMP_temperature;BMP_pressure;BME280_temperature;BME280_humidity;BME280_pressure;Samples;Min_cycle;Max_cycle;Signal;HPM_P1;HPM_P2
2021/07/28 00:00:31;;;;;;;6.90;6.13;;;;;;;;;;5061982;28;20047;-83
2021/07/28 00:02:57;;;;;;;6.50;5.15;;;;;;;;;;5063250;28;20025;-83
2021/07/28 00:05:23;;;;;;;7.55;6.22;;;;;;;;;;5067442;28;20017;-82
2021/07/28 00:07:49;;;;;;;5.68;5.18;;;;;;;;;;5075884;28;20040;-82
2021/07/28 00:10:15;;;;;;;5.25;4.75;;;;;;;;;;5071564;28;20025;-84
2021/07/28 00:12:41;;;;;;;4.57;4.18;;;;;;;;;;5060973;28;20024;-84
2021/07/28 00:15:08;;;;;;;6.03;4.97;;;;;;;;;;5063250;28;20016;-83
2021/07/28 00:17:37;;;;;;;4.72;4.30;;;;;;;;;;5070807;28;20067;-84
2021/07/28 00:20:11;;;;;;;4.90;4.50;;;;;;;;;;5064029;28;20060;-84
2021/07/28 00:25:23;;;;;;;3.80;3.50;;;;;;;;;;5064975;28;20067;-83
2021/07/28 00:27:52;;;;;;;4.35;3.95;;;;;;;;;;5060448;28;20093;-84
2021/07/28 00:30:18;;;;;;;5.07;4.57;;;;;;;;;;5059673;28;20033;-83
2021/07/28 00:32:44;;;;;;;5.40;4.68;;;;;;;;;;5061237;28;20370;-84
2021/07/28 00:35:11;;;;;;;4.78;4.35;;;;;;;;;;5061004;28;20051;-84
2021/07/28 00:37:37;;;;;;;4.75;4.07;;;;;;;;;;5060517;28;20029;-84
2021/07/28 00:40:03;;;;;;;4.68;4.28;;;;;;;;;;5060601;28;20017;-84
2021/07/28 00:42:30;;;;;;;5.68;5.13;;;;;;;;;;5060839;28;20464;-84
2021/07/28 00:44:56;;;;;;;6.10;4.40;;;;;;;;;;5061509;28;20021;-83
2021/07/28 00:47:22;;;;;;;5.57;4.30;;;;;;;;;;5058483;28;20071;-84
2021/07/28 00:49:49;;;;;;;4.63;4.22;;;;;;;;;;5059553;28;20025;-83
2021/07/28 00:52:15;;;;;;;4.97;4.47;;;;;;;;;;5061653;28;20107;-84
2021/07/28 00:54:41;;;;;;;4.20;3.78;;;;;;;;;;5066108;28;20094;-85
2021/07/28 00:57:08;;;;;;;4.03;3.63;;;;;;;;;;5066963;28;20029;-83
2021/07/28 00:59:34;;;;;;;4.15;3.65;;;;;;;;;;5061628;28;20075;-84
2021/07/28 01:02:00;;;;;;;4.22;3.55;;;;;;;;;;5059917;28;20132;-84
2021/07/28 01:04:27;;;;;;;3.22;2.92;;;;;;;;;;5059589;28;20072;-83
2021/07/28 01:06:53;;;;;;;3.03;2.72;;;;;;;;;;5062674;28;20043;-83
2021/07/28 01:09:19;;;;;;;3.63;3.33;;;;;;;;;;5061051;28;20025;-83
2021/07/28 01:11:46;;;;;;;3.50;3.20;;;;;;;;;;5060112;28;20024;-83
2021/07/28 01:14:12;;;;;;;3.35;3.05;;;;;;;;;;5058510;28;20047;-83
2021/07/28 01:16:41;;;;;;;4.93;3.33;;;;;;;;;;5059502;28;20357;-83
2021/07/28 01:19:16;;;;;;;3.58;3.28;;;;;;;;;;5060516;28;20033;-83
2021/07/28 01:21:44;;;;;;;4.10;3.70;;;;;;;;;;5067187;28;20025;-83
2021/07/28 01:24:13;;;;;;;3.42;3.13;;;;;;;;;;5065959;28;20043;-83
2021/07/28 01:26:39;;;;;;;3.63;3.33;;;;;;;;;;5084305;28;20029;-82
2021/07/28 01:29:06;;;;;;;4.00;3.60;;;;;;;;;;5066096;28;20029;-83
2021/07/28 01:31:39;;;;;;;4.50;4.00;;;;;;;;;;5066172;28;20100;-83
2021/07/28 01:34:06;;;;;;;3.88;3.58;;;;;;;;;;5043791;28;20021;-84
2021/07/28 01:36:33;;;;;;;4.57;3.90;;;;;;;;;;5051484;28;20025;-82
2021/07/28 01:39:00;;;;;;;5.03;4.53;;;;;;;;;;5058185;28;20089;-82
2021/07/28 01:41:26;;;;;;;3.97;3.58;;;;;;;;;;5058220;28;20021;-84
2021/07/28 01:43:52;;;;;;;4.20;3.83;;;;;;;;;;5058254;28;20101;-83
2021/07/28 01:46:18;;;;;;;4.35;3.95;;;;;;;;;;5058775;28;20025;-83
2021/07/28 01:48:44;;;;;;;3.72;3.42;;;;;;;;;;5058629;28;20492;-85
2021/07/28 01:51:11;;;;;;;3.60;3.30;;;;;;;;;;5060182;28;20092;-84
2021/07/28 01:53:37;;;;;;;4.30;3.80;;;;;;;;;;5065674;28;20029;-84
2021/07/28 01:56:03;;;;;;;3.63;3.33;;;;;;;;;;5066747;28;20009;-83
2021/07/28 01:58:30;;;;;;;3.53;3.13;;;;;;;;;;5073564;28;20040;-83
2021/07/28 02:00:57;;;;;;;4.15;3.22;;;;;;;;;;5065980;28;20032;-84
2021/07/28 02:03:23;;;;;;;3.28;3.00;;;;;;;;;;5077921;28;20044;-83
2021/07/28 02:05:49;;;;;;;3.55;3.25;;;;;;;;;;5068080;28;20043;-83
2021/07/28 02:08:16;;;;;;;3.92;3.47;;;;;;;;;;5066343;28;20530;-84
2021/07/28 02:10:46;;;;;;;3.78;3.47;;;;;;;;;;5072682;28;20027;-82
2021/07/28 02:13:13;;;;;;;3.78;3.47;;;;;;;;;;5044238;28;20168;-85
2021/07/28 02:15:39;;;;;;;3.60;3.30;;;;;;;;;;5044125;28;20029;-84
2021/07/28 02:18:05;;;;;;;4.10;3.70;;;;;;;;;;5058932;28;20036;-84
2021/07/28 02:20:32;;;;;;;4.28;3.88;;;;;;;;;;5058226;28;20033;-84
2021/07/28 02:22:58;;;;;;;4.05;3.40;;;;;;;;;;5076196;28;20220;-84
2021/07/28 02:25:24;;;;;;;4.05;3.65;;;;;;;;;;5077812;28;20025;-84
2021/07/28 02:27:50;;;;;;;3.88;3.55;;;;;;;;;;5078934;28;20024;-84
2021/07/28 02:30:17;;;;;;;3.35;3.10;;;;;;;;;;5081201;28;20481;-83
2021/07/28 02:32:44;;;;;;;3.65;3.35;;;;;;;;;;5070523;28;20075;-83
2021/07/28 02:35:12;;;;;;;4.38;3.70;;;;;;;;;;5061213;28;20029;-83
2021/07/28 02:37:41;;;;;;;3.47;3.17;;;;;;;;;;5061619;28;20371;-84
2021/07/28 02:40:07;;;;;;;3.13;2.90;;;;;;;;;;5060957;28;20024;-83
2021/07/28 02:42:33;;;;;;;3.15;2.90;;;;;;;;;;5060445;28;20025;-84
2021/07/28 02:44:59;;;;;;;3.47;3.17;;;;;;;;;;5060938;28;20017;-84
2021/07/28 02:47:26;;;;;;;3.25;2.70;;;;;;;;;;5063522;28;20025;-83
2021/07/28 02:49:52;;;;;;;3.30;2.80;;;;;;;;;;5061335;28;20029;-84
2021/07/28 02:52:18;;;;;;;3.65;3.22;;;;;;;;;;5070205;28;20098;-83
2021/07/28 02:54:46;;;;;;;2.88;2.38;;;;;;;;;;5081577;28;20118;-84
2021/07/28 02:57:12;;;;;;;2.83;2.63;;;;;;;;;;5082512;28;20100;-82
2021/07/28 02:59:38;;;;;;;3.03;2.80;;;;;;;;;;5062913;28;20041;-84
2021/07/28 03:02:05;;;;;;;3.97;3.35;;;;;;;;;;5063661;28;20021;-84
2021/07/28 03:04:31;;;;;;;4.15;2.90;;;;;;;;;;5060129;28;20025;-83
2021/07/28 03:06:57;;;;;;;4.95;2.95;;;;;;;;;;5062166;28;20116;-83
2021/07/28 03:09:23;;;;;;;3.40;3.10;;;;;;;;;;5063012;28;20047;-83
2021/07/28 03:11:49;;;;;;;3.20;2.90;;;;;;;;;;5061380;28;20029;-83
2021/07/28 03:14:15;;;;;;;3.47;2.47;;;;;;;;;;5061489;28;20120;-84
2021/07/28 03:16:41;;;;;;;3.25;2.90;;;;;;;;;;5062632;28;20354;-84
2021/07/28 03:19:07;;;;;;;3.08;2.78;;;;;;;;;;5062969;28;20040;-84
2021/07/28 03:21:33;;;;;;;3.30;3.00;;;;;;;;;;5111149;22;20131;-79
2021/07/28 03:24:02;;;;;;;3.15;2.85;;;;;;;;;;5096969;28;20020;-79
2021/07/28 03:26:28;;;;;;;3.00;2.70;;;;;;;;;;5097972;28;20024;-79
2021/07/28 03:28:55;;;;;;;2.83;2.63;;;;;;;;;;5099110;28;20035;-79
2021/07/28 03:31:21;;;;;;;3.22;2.88;;;;;;;;;;5105555;28;20054;-79
2021/07/28 03:33:47;;;;;;;2.78;2.58;;;;;;;;;;5104411;28;20028;-79
2021/07/28 03:36:13;;;;;;;3.80;3.05;;;;;;;;;;5103779;28;20088;-80
2021/07/28 03:38:39;;;;;;;2.72;2.53;;;;;;;;;;5085825;28;20214;-80
2021/07/28 03:41:05;;;;;;;3.30;2.80;;;;;;;;;;5090534;28;20416;-80
2021/07/28 03:43:31;;;;;;;3.20;2.88;;;;;;;;;;5099317;28;20491;-80
2021/07/28 03:45:57;;;;;;;3.03;2.75;;;;;;;;;;5096247;28;20028;-79
2021/07/28 03:48:25;;;;;;;3.42;3.10;;;;;;;;;;5080496;28;20293;-79
2021/07/28 03:50:51;;;;;;;4.47;3.55;;;;;;;;;;5083311;28;20469;-77
2021/07/28 03:53:17;;;;;;;3.60;3.30;;;;;;;;;;5097235;28;20039;-79
2021/07/28 03:55:43;;;;;;;3.67;2.95;;;;;;;;;;5087768;28;20035;-80
2021/07/28 03:58:09;;;;;;;3.92;3.53;;;;;;;;;;5093622;28;20115;-80
2021/07/28 04:00:35;;;;;;;3.30;3.05;;;;;;;;;;5097363;28;20340;-79
2021/07/28 04:03:01;;;;;;;5.10;3.65;;;;;;;;;;5092615;28;20031;-79
2021/07/28 04:05:27;;;;;;;4.32;3.92;;;;;;;;;;5108127;28;20070;-78
2021/07/28 04:07:57;;;;;;;4.20;3.80;;;;;;;;;;5093293;28;20028;-79
2021/07/28 04:10:24;;;;;;;4.85;3.80;;;;;;;;;;5076371;28;20099;-79
2021/07/28 04:12:50;;;;;;;4.65;4.20;;;;;;;;;;5088314;28;20074;-79
2021/07/28 04:15:16;;;;;;;3.80;3.50;;;;;;;;;;5092999;28;20043;-79
2021/07/28 04:17:42;;;;;;;4.45;4.05;;;;;;;;;;5076529;28;20170;-80
2021/07/28 04:20:08;;;;;;;3.67;3.38;;;;;;;;;;5094486;28;20032;-79
2021/07/28 04:22:34;;;;;;;4.22;3.83;;;;;;;;;;5081291;28;20041;-80
2021/07/28 04:25:05;;;;;;;4.50;4.10;;;;;;;;;;5077016;28;20120;-78
2021/07/28 04:27:31;;;;;;;4.40;4.00;;;;;;;;;;5084875;28;20024;-78
2021/07/28 04:29:57;;;;;;;5.15;4.43;;;;;;;;;;5094584;28;20077;-79
2021/07/28 04:32:24;;;;;;;4.28;3.83;;;;;;;;;;5092105;28;20036;-78
2021/07/28 04:34:50;;;;;;;3.92;3.55;;;;;;;;;;5095639;28;20039;-79
2021/07/28 04:37:16;;;;;;;4.40;4.00;;;;;;;;;;5090780;28;20036;-78
2021/07/28 04:39:42;;;;;;;3.72;3.42;;;;;;;;;;5078307;28;20028;-78
2021/07/28 04:42:08;;;;;;;3.55;3.25;;;;;;;;;;5079616;28;20020;-78
2021/07/28 04:44:34;;;;;;;3.85;3.55;;;;;;;;;;5079699;28;20036;-78
2021/07/28 04:47:00;;;;;;;3.90;3.53;;;;;;;;;;5087199;28;20028;-79
2021/07/28 04:49:26;;;;;;;3.92;3.53;;;;;;;;;;5088641;28;20028;-79
2021/07/28 04:51:53;;;;;;;4.30;3.90;;;;;;;;;;5083829;28;20028;-79
2021/07/28 04:54:19;;;;;;;9.98;5.60;;;;;;;;;;5083294;28;20028;-79
2021/07/28 04:56:45;;;;;;;7.43;5.38;;;;;;;;;;5086871;28;20025;-79
2021/07/28 04:59:11;;;;;;;6.00;4.97;;;;;;;;;;5084011;28;20088;-79
2021/07/28 05:01:37;;;;;;;6.50;4.90;;;;;;;;;;5078699;28;20024;-79
2021/07/28 05:04:04;;;;;;;6.10;5.25;;;;;;;;;;5079210;28;20074;-79
2021/07/28 05:06:30;;;;;;;5.72;4.82;;;;;;;;;;5080202;28;20020;-79
2021/07/28 05:08:56;;;;;;;9.35;5.20;;;;;;;;;;5078258;28;20016;-79
2021/07/28 05:11:22;;;;;;;4.75;4.30;;;;;;;;;;5078606;28;20091;-79
2021/07/28 05:13:48;;;;;;;5.75;4.95;;;;;;;;;;5089450;28;20117;-79
2021/07/28 05:16:14;;;;;;;5.90;4.57;;;;;;;;;;5085240;28;20067;-79
2021/07/28 05:18:40;;;;;;;5.45;4.53;;;;;;;;;;5098522;28;20440;-79
2021/07/28 05:21:06;;;;;;;5.18;4.32;;;;;;;;;;5092103;28;20024;-79
2021/07/28 05:23:32;;;;;;;4.85;4.32;;;;;;;;;;5080147;28;20464;-79
2021/07/28 05:25:59;;;;;;;3.88;3.58;;;;;;;;;;5088399;28;20091;-81
2021/07/28 05:28:25;;;;;;;3.72;3.42;;;;;;;;;;5085209;28;20049;-79
2021/07/28 05:30:51;;;;;;;3.70;3.38;;;;;;;;;;5081933;28;20025;-80
2021/07/28 05:33:18;;;;;;;3.35;3.05;;;;;;;;;;5089161;28;20105;-79
2021/07/28 05:35:48;;;;;;;3.80;3.25;;;;;;;;;;5101516;28;20052;-79
2021/07/28 05:38:14;;;;;;;2.80;2.40;;;;;;;;;;5099744;28;20039;-79
2021/07/28 05:40:40;;;;;;;2.55;2.35;;;;;;;;;;5100544;28;20030;-79
2021/07/28 05:43:07;;;;;;;2.67;2.28;;;;;;;;;;5098191;28;20021;-80
2021/07/28 05:45:33;;;;;;;3.40;3.13;;;;;;;;;;5081288;28;20028;-79
2021/07/28 05:47:59;;;;;;;4.47;3.10;;;;;;;;;;5082527;28;20024;-78
2021/07/28 05:50:25;;;;;;;3.25;2.85;;;;;;;;;;5083606;28;20092;-79
2021/07/28 05:52:51;;;;;;;3.30;3.00;;;;;;;;;;5082760;28;20025;-79
2021/07/28 05:55:17;;;;;;;2.85;2.65;;;;;;;;;;5086360;28;20041;-78
2021/07/28 05:57:45;;;;;;;3.25;2.65;;;;;;;;;;5096917;28;20024;-79
2021/07/28 06:00:11;;;;;;;3.55;3.25;;;;;;;;;;5105514;28;20034;-79
2021/07/28 06:02:37;;;;;;;3.08;2.67;;;;;;;;;;5103735;28;20081;-78
2021/07/28 06:05:03;;;;;;;2.92;2.47;;;;;;;;;;5112539;28;20028;-78
2021/07/28 06:07:29;;;;;;;3.10;2.80;;;;;;;;;;5105614;28;20055;-79
2021/07/28 06:09:55;;;;;;;2.72;2.53;;;;;;;;;;5083872;28;20029;-78
2021/07/28 06:12:21;;;;;;;2.97;2.60;;;;;;;;;;5085251;28;20053;-78
2021/07/28 06:14:47;;;;;;;2.63;2.42;;;;;;;;;;5087900;28;20052;-80
2021/07/28 06:17:14;;;;;;;3.15;2.85;;;;;;;;;;5084802;28;20046;-79
2021/07/28 06:19:40;;;;;;;3.05;2.72;;;;;;;;;;5096807;28;20031;-80
2021/07/28 06:22:06;;;;;;;2.92;2.70;;;;;;;;;;5104762;28;20552;-80
2021/07/28 06:24:32;;;;;;;2.88;2.67;;;;;;;;;;5102397;28;20060;-79
2021/07/28 06:26:58;;;;;;;3.47;3.03;;;;;;;;;;5092047;28;20023;-79
2021/07/28 06:29:25;;;;;;;2.72;2.53;;;;;;;;;;5086700;28;20032;-78
2021/07/28 06:31:52;;;;;;;3.95;2.47;;;;;;;;;;5097865;28;20472;-78
2021/07/28 06:34:18;;;;;;;2.85;2.50;;;;;;;;;;5089037;28;20036;-79
2021/07/28 06:36:44;;;;;;;2.70;2.20;;;;;;;;;;5087644;28;20465;-79
2021/07/28 06:39:10;;;;;;;2.50;2.30;;;;;;;;;;5103277;28;20024;-78
2021/07/28 06:41:36;;;;;;;3.95;2.92;;;;;;;;;;5094935;28;20491;-78
2021/07/28 06:44:02;;;;;;;4.43;2.85;;;;;;;;;;5083687;28;20384;-78
2021/07/28 06:46:28;;;;;;;4.05;3.65;;;;;;;;;;5086117;28;20040;-77
2021/07/28 06:48:55;;;;;;;3.53;3.22;;;;;;;;;;5089736;28;20033;-79
2021/07/28 06:51:21;;;;;;;7.43;4.38;;;;;;;;;;5082586;28;20115;-78
2021/07/28 06:53:47;;;;;;;5.65;4.55;;;;;;;;;;5095533;28;20081;-79
2021/07/28 06:56:16;;;;;;;4.47;4.07;;;;;;;;;;5091977;28;20479;-78
2021/07/28 06:58:42;;;;;;;4.90;4.07;;;;;;;;;;5098031;28;20032;-78
2021/07/28 07:01:09;;;;;;;4.80;4.28;;;;;;;;;;5102995;28;20032;-78
2021/07/28 07:03:38;;;;;;;5.32;4.63;;;;;;;;;;5103852;28;20081;-79
2021/07/28 07:06:04;;;;;;;5.55;3.90;;;;;;;;;;5084467;28;20051;-79
2021/07/28 07:08:30;;;;;;;6.25;4.28;;;;;;;;;;5081415;28;20496;-77
2021/07/28 07:10:57;;;;;;;3.92;3.53;;;;;;;;;;5084787;28;20032;-79
2021/07/28 07:13:23;;;;;;;4.72;4.22;;;;;;;;;;5085144;28;20107;-78
2021/07/28 07:15:49;;;;;;;4.30;3.90;;;;;;;;;;5083028;28;20040;-80
2021/07/28 07:18:18;;;;;;;4.38;3.97;;;;;;;;;;5091631;28;20059;-79
2021/07/28 07:20:44;;;;;;;5.50;4.32;;;;;;;;;;5092200;28;20060;-78
2021/07/28 07:23:11;;;;;;;5.07;3.60;;;;;;;;;;5093119;28;20027;-80
2021/07/28 07:25:38;;;;;;;4.20;3.80;;;;;;;;;;5095298;28;20024;-79
2021/07/28 07:28:05;;;;;;;7.72;4.30;;;;;;;;;;5091983;28;20050;-79
2021/07/28 07:30:31;;;;;;;7.68;3.78;;;;;;;;;;5100680;28;20459;-78
2021/07/28 07:35:42;;;;;;;5.47;4.85;;;;;;;;;;5101954;28;20039;-81
2021/07/28 07:38:08;;;;;;;6.18;4.90;;;;;;;;;;5105339;28;20020;-79
2021/07/28 07:40:34;;;;;;;7.25;4.40;;;;;;;;;;5110782;28;20047;-77
2021/07/28 07:43:00;;;;;;;5.90;4.57;;;;;;;;;;5114699;28;20311;-79
2021/07/28 07:45:26;;;;;;;6.72;5.03;;;;;;;;;;5103527;28;20032;-79
2021/07/28 07:47:53;;;;;;;9.43;6.43;;;;;;;;;;5102290;28;20110;-79
2021/07/28 07:50:19;;;;;;;8.18;5.20;;;;;;;;;;5101608;28;20031;-80
2021/07/28 07:52:45;;;;;;;9.35;4.95;;;;;;;;;;5102815;28;20028;-80
2021/07/28 07:55:11;;;;;;;5.30;4.85;;;;;;;;;;5099424;28;20040;-80
2021/07/28 07:57:37;;;;;;;6.70;5.53;;;;;;;;;;5090092;28;20158;-80
2021/07/28 08:00:04;;;;;;;6.25;4.93;;;;;;;;;;5083853;28;20035;-79
2021/07/28 08:02:32;;;;;;;6.00;4.93;;;;;;;;;;5084461;28;20033;-80
2021/07/28 08:04:58;;;;;;;9.50;5.97;;;;;;;;;;5084652;28;20028;-81
2021/07/28 08:07:24;;;;;;;5.70;5.20;;;;;;;;;;5100733;28;20038;-80
2021/07/28 08:09:50;;;;;;;5.82;4.90;;;;;;;;;;5102025;28;20047;-80
2021/07/28 08:12:16;;;;;;;5.70;5.20;;;;;;;;;;5102898;28;20055;-80
2021/07/28 08:14:42;;;;;;;6.50;5.80;;;;;;;;;;5101044;28;20456;-80
2021/07/28 08:17:08;;;;;;;6.90;6.28;;;;;;;;;;5090097;28;20029;-79
2021/07/28 08:19:40;;;;;;;7.80;5.78;;;;;;;;;;5084851;28;20024;-80
2021/07/28 08:22:06;;;;;;;6.80;6.10;;;;;;;;;;5083746;28;20071;-79
2021/07/28 08:24:32;;;;;;;7.18;6.47;;;;;;;;;;5081861;28;20035;-81
2021/07/28 08:26:58;;;;;;;7.10;6.00;;;;;;;;;;5083340;28;20016;-79
2021/07/28 08:29:24;;;;;;;7.88;6.50;;;;;;;;;;5084915;28;20150;-80
2021/07/28 08:31:50;;;;;;;8.60;6.80;;;;;;;;;;5081808;28;20047;-80
2021/07/28 08:34:16;;;;;;;7.45;6.45;;;;;;;;;;5081942;28;20120;-80
2021/07/28 08:36:42;;;;;;;7.90;6.65;;;;;;;;;;5084607;28;20024;-79
2021/07/28 08:39:10;;;;;;;13.27;6.57;;;;;;;;;;5101950;28;20477;-81
2021/07/28 08:41:37;;;;;;;6.90;6.00;;;;;;;;;;5108573;28;20123;-78
2021/07/28 08:44:03;;;;;;;7.88;6.15;;;;;;;;;;5107645;28;20031;-80
2021/07/28 08:46:30;;;;;;;9.05;7.40;;;;;;;;;;5106431;28;20472;-79
2021/07/28 08:48:56;;;;;;;10.38;8.10;;;;;;;;;;5103379;28;20125;-80
2021/07/28 08:51:28;;;;;;;7.78;6.72;;;;;;;;;;5103271;28;20400;-80
2021/07/28 08:53:54;;;;;;;10.50;8.15;;;;;;;;;;5108264;28;20085;-80
2021/07/28 08:56:23;;;;;;;13.18;8.82;;;;;;;;;;5110863;28;20080;-78
2021/07/28 08:58:50;;;;;;;12.70;8.38;;;;;;;;;;5111528;28;20038;-80
2021/07/28 09:01:16;;;;;;;9.02;7.90;;;;;;;;;;5107488;28;20042;-79
2021/07/28 09:03:42;;;;;;;10.50;9.27;;;;;;;;;;5105552;28;20020;-79
2021/07/28 09:06:08;;;;;;;10.13;8.93;;;;;;;;;;5110962;28;20039;-80
2021/07/28 09:08:35;;;;;;;10.90;9.75;;;;;;;;;;5115263;28;20107;-81
2021/07/28 09:11:03;;;;;;;11.98;9.93;;;;;;;;;;5115105;28;20053;-79
2021/07/28 09:13:31;;;;;;;12.00;10.18;;;;;;;;;;5106544;28;20461;-79
2021/07/28 09:15:58;;;;;;;13.65;10.50;;;;;;;;;;5110923;28;20020;-78
2021/07/28 09:18:35;;;;;;;13.38;10.20;;;;;;;;;;5116515;28;20032;-78
2021/07/28 09:21:06;;;;;;;17.67;12.07;;;;;;;;;;5116163;28;20038;-78
2021/07/28 09:23:33;;;;;;;12.60;10.65;;;;;;;;;;5116357;28;20100;-80
2021/07/28 09:26:00;;;;;;;14.85;11.02;;;;;;;;;;5116351;28;20015;-78
2021/07/28 09:28:26;;;;;;;14.38;11.45;;;;;;;;;;5113395;28;20020;-78
2021/07/28 09:30:52;;;;;;;13.65;11.05;;;;;;;;;;5094789;28;20020;-78
2021/07/28 09:33:19;;;;;;;13.00;11.60;;;;;;;;;;5094911;28;20443;-78
2021/07/28 09:35:48;;;;;;;13.65;11.82;;;;;;;;;;5095523;28;20054;-77
2021/07/28 09:38:30;;;;;;;14.07;11.60;;;;;;;;;;5094315;28;20024;-78
2021/07/28 09:41:12;;;;;;;16.10;12.48;;;;;;;;;;5094104;28;20024;-77
2021/07/28 09:43:44;;;;;;;19.33;13.02;;;;;;;;;;5111656;28;20074;-78
2021/07/28 09:46:21;;;;;;;13.55;12.02;;;;;;;;;;5090670;28;20024;-78
2021/07/28 09:48:50;;;;;;;13.05;10.43;;;;;;;;;;5091680;28;20016;-79
2021/07/28 09:51:23;;;;;;;16.10;11.82;;;;;;;;;;5095370;28;20021;-78
2021/07/28 09:54:08;;;;;;;15.82;12.70;;;;;;;;;;5093676;28;20062;-79
2021/07/28 09:56:40;;;;;;;15.60;13.02;;;;;;;;;;5092064;28;20036;-78
2021/07/28 09:59:06;;;;;;;20.57;15.07;;;;;;;;;;5093428;28;20013;-80
2021/07/28 10:01:33;;;;;;;19.98;15.07;;;;;;;;;;5113648;28;20361;-78
2021/07/28 10:04:00;;;;;;;19.40;14.23;;;;;;;;;;5114896;28;20008;-78
2021/07/28 10:06:31;;;;;;;16.27;14.40;;;;;;;;;;5110264;28;20087;-77
2021/07/28 10:08:58;;;;;;;14.65;13.13;;;;;;;;;;5107687;28;20091;-77
2021/07/28 10:11:24;;;;;;;19.33;14.40;;;;;;;;;;5099822;28;20055;-80
2021/07/28 10:13:51;;;;;;;14.15;12.13;;;;;;;;;;5095042;28;20031;-79
2021/07/28 10:16:18;;;;;;;14.13;12.02;;;;;;;;;;5090767;28;20017;-78
2021/07/28 10:18:48;;;;;;;13.30;11.90;;;;;;;;;;5094242;28;20064;-77
2021/07/28 10:21:15;;;;;;;14.98;12.32;;;;;;;;;;5093323;28;20059;-79
2021/07/28 10:23:43;;;;;;;14.18;10.98;;;;;;;;;;5092958;28;20044;-76
2021/07/28 10:26:13;;;;;;;12.30;10.65;;;;;;;;;;5101972;28;20016;-76
2021/07/28 10:28:46;;;;;;;10.15;7.93;;;;;;;;;;5108776;28;20036;-77
2021/07/28 10:31:13;;;;;;;8.70;7.43;;;;;;;;;;5104942;28;20040;-79
2021/07/28 10:33:46;;;;;;;8.65;7.75;;;;;;;;;;5089338;28;20088;-78
2021/07/28 10:36:13;;;;;;;8.27;7.10;;;;;;;;;;5093928;28;20040;-80
2021/07/28 10:38:58;;;;;;;7.18;6.00;;;;;;;;;;5089412;28;20112;-78
2021/07/28 10:41:53;;;;;;;5.68;5.18;;;;;;;;;;5085963;28;20044;-78
2021/07/28 10:44:22;;;;;;;5.47;4.97;;;;;;;;;;5086441;28;20081;-77
2021/07/28 10:46:54;;;;;;;5.75;4.72;;;;;;;;;;5089899;28;20004;-76
2021/07/28 10:49:29;;;;;;;5.47;4.70;;;;;;;;;;5084369;28;20040;-79
2021/07/28 10:51:55;;;;;;;7.22;5.20;;;;;;;;;;5093327;28;20024;-78
2021/07/28 10:54:40;;;;;;;8.05;5.63;;;;;;;;;;5107771;28;20068;-79
2021/07/28 10:57:09;;;;;;;5.25;4.80;;;;;;;;;;5104629;28;20495;-79
2021/07/28 10:59:39;;;;;;;5.47;4.97;;;;;;;;;;5087089;28;20028;-79
2021/07/28 11:02:05;;;;;;;5.70;5.13;;;;;;;;;;5090601;28;20429;-80
2021/07/28 11:04:31;;;;;;;7.13;5.50;;;;;;;;;;5107258;28;20024;-80
2021/07/28 11:06:57;;;;;;;7.15;5.82;;;;;;;;;;5107069;28;20020;-79
2021/07/28 11:09:25;;;;;;;7.32;6.32;;;;;;;;;;5108833;28;20031;-77
2021/07/28 11:11:51;;;;;;;6.50;5.50;;;;;;;;;;5105129;28;20028;-78
2021/07/28 11:14:17;;;;;;;6.75;5.43;;;;;;;;;;5088097;28;20028;-79
2021/07/28 11:16:51;;;;;;;7.35;5.63;;;;;;;;;;5088557;28;20017;-79
2021/07/28 11:19:19;;;;;;;6.03;5.22;;;;;;;;;;5085137;28;20028;-79
2021/07/28 11:21:46;;;;;;;5.88;5.30;;;;;;;;;;5082008;28;20033;-80
2021/07/28 11:24:12;;;;;;;5.10;4.65;;;;;;;;;;5109094;28;20008;-79
2021/07/28 11:26:39;;;;;;;6.85;5.03;;;;;;;;;;5107527;28;20036;-80
2021/07/28 11:29:15;;;;;;;5.70;5.10;;;;;;;;;;5097160;28;20032;-79
2021/07/28 11:31:43;;;;;;;5.40;4.88;;;;;;;;;;5091884;28;20092;-80
2021/07/28 11:34:11;;;;;;;6.43;5.68;;;;;;;;;;5092418;28;20507;-80
2021/07/28 11:36:38;;;;;;;5.80;5.22;;;;;;;;;;5084056;28;20017;-81
2021/07/28 11:39:08;;;;;;;6.47;5.72;;;;;;;;;;5081897;28;20438;-78
2021/07/28 11:41:34;;;;;;;6.88;5.40;;;;;;;;;;5082054;28;20373;-80
2021/07/28 11:44:00;;;;;;;8.10;4.53;;;;;;;;;;5085680;28;20032;-79
2021/07/28 11:46:26;;;;;;;5.07;4.57;;;;;;;;;;5086330;28;20020;-79
2021/07/28 11:49:02;;;;;;;6.22;4.53;;;;;;;;;;5087651;28;20353;-79
2021/07/28 11:51:31;;;;;;;5.65;5.05;;;;;;;;;;5085564;28;20035;-80
2021/07/28 11:54:06;;;;;;;7.57;4.97;;;;;;;;;;5092199;28;20016;-80
2021/07/28 11:56:33;;;;;;;6.20;5.40;;;;;;;;;;5110735;28;20093;-79
2021/07/28 11:58:59;;;;;;;5.40;4.88;;;;;;;;;;5109090;28;20050;-80
2021/07/28 12:01:26;;;;;;;4.45;4.05;;;;;;;;;;5103745;28;20046;-80
2021/07/28 12:03:53;;;;;;;7.05;4.57;;;;;;;;;;5100224;28;20027;-80
2021/07/28 12:06:31;;;;;;;5.32;4.80;;;;;;;;;;5094179;28;20414;-80
2021/07/28 12:09:07;;;;;;;4.53;4.13;;;;;;;;;;5092089;28;20019;-78
2021/07/28 12:11:50;;;;;;;5.63;4.38;;;;;;;;;;5090645;28;20465;-81
2021/07/28 12:14:26;;;;;;;9.07;4.75;;;;;;;;;;5081500;28;20414;-80
2021/07/28 12:16:53;;;;;;;5.40;4.85;;;;;;;;;;5083485;28;20059;-82
2021/07/28 12:19:26;;;;;;;5.20;4.60;;;;;;;;;;5091429;28;20556;-81
2021/07/28 12:21:57;;;;;;;5.32;4.28;;;;;;;;;;5083521;28;20048;-80
2021/07/28 12:24:42;;;;;;;4.38;3.97;;;;;;;;;;5084494;28;20032;-81
2021/07/28 12:27:26;;;;;;;6.97;4.63;;;;;;;;;;5095492;28;20028;-79
2021/07/28 12:30:01;;;;;;;5.35;4.05;;;;;;;;;;5083556;28;20028;-79
2021/07/28 12:32:52;;;;;;;5.22;4.72;;;;;;;;;;5102155;28;20057;-82
2021/07/28 12:35:21;;;;;;;4.70;4.30;;;;;;;;;;5101465;28;20034;-78
2021/07/28 12:38:07;;;;;;;5.07;4.57;;;;;;;;;;5100995;28;20095;-82
2021/07/28 12:40:34;;;;;;;4.35;3.95;;;;;;;;;;5101045;28;20032;-81
2021/07/28 12:43:00;;;;;;;4.55;4.15;;;;;;;;;;5082560;28;20541;-82
2021/07/28 12:45:26;;;;;;;4.88;4.45;;;;;;;;;;5079983;28;20473;-80
2021/07/28 12:47:52;;;;;;;4.15;3.83;;;;;;;;;;5090018;28;20052;-80
2021/07/28 12:50:18;;;;;;;4.38;3.97;;;;;;;;;;5081569;28;20028;-80
2021/07/28 12:52:45;;;;;;;4.30;3.90;;;;;;;;;;5080025;28;20470;-80
2021/07/28 12:55:11;;;;;;;4.43;4.13;;;;;;;;;;5081218;28;20013;-79
2021/07/28 12:57:37;;;;;;;5.50;4.45;;;;;;;;;;5092716;28;20091;-81
2021/07/28 13:00:06;;;;;;;3.85;3.42;;;;;;;;;;5099760;28;20024;-80
2021/07/28 13:02:35;;;;;;;4.40;3.25;;;;;;;;;;5087343;28;20084;-81
2021/07/28 13:05:02;;;;;;;4.57;4.18;;;;;;;;;;5084594;28;20020;-81
2021/07/28 13:07:43;;;;;;;4.13;3.72;;;;;;;;;;5082443;28;20076;-81
2021/07/28 13:10:10;;;;;;;4.72;4.10;;;;;;;;;;5082726;28;20064;-80
2021/07/28 13:12:36;;;;;;;5.72;4.55;;;;;;;;;;5082961;28;20032;-79
2021/07/28 13:15:02;;;;;;;4.55;4.15;;;;;;;;;;5088593;28;20029;-80
2021/07/28 13:17:28;;;;;;;4.20;3.67;;;;;;;;;;5092765;28;20028;-80
2021/07/28 13:19:54;;;;;;;3.67;3.38;;;;;;;;;;5096934;28;20040;-81
2021/07/28 13:22:20;;;;;;;4.35;3.80;;;;;;;;;;5103460;28;20024;-79
2021/07/28 13:24:46;;;;;;;4.53;3.78;;;;;;;;;;5110137;28;20076;-79
2021/07/28 13:27:12;;;;;;;5.60;3.40;;;;;;;;;;5102125;28;20008;-81
2021/07/28 13:29:38;;;;;;;3.50;3.10;;;;;;;;;;5101478;28;20103;-80
2021/07/28 13:32:04;;;;;;;3.80;3.50;;;;;;;;;;5100706;28;20134;-81
2021/07/28 13:34:30;;;;;;;4.05;3.42;;;;;;;;;;5102349;28;20092;-81
2021/07/28 13:36:56;;;;;;;3.25;3.05;;;;;;;;;;5101920;28;20028;-82
2021/07/28 13:39:23;;;;;;;3.33;3.03;;;;;;;;;;5095100;28;20032;-82
2021/07/28 13:41:49;;;;;;;4.93;3.67;;;;;;;;;;5077770;28;20035;-82
2021/07/28 13:44:15;;;;;;;4.00;3.63;;;;;;;;;;5080487;28;20029;-81
2021/07/28 13:46:41;;;;;;;3.88;3.47;;;;;;;;;;5081665;28;20020;-81
2021/07/28 13:49:08;;;;;;;4.05;3.58;;;;;;;;;;5079767;28;20024;-81
2021/07/28 13:51:34;;;;;;;5.38;3.35;;;;;;;;;;5097740;28;20489;-80
2021/07/28 13:54:00;;;;;;;3.97;3.55;;;;;;;;;;5100179;28;20020;-80
2021/07/28 13:56:27;;;;;;;5.53;4.10;;;;;;;;;;5094378;28;20032;-80
2021/07/28 13:58:53;;;;;;;3.92;3.53;;;;;;;;;;5079531;28;20059;-80
2021/07/28 14:01:19;;;;;;;4.30;3.75;;;;;;;;;;5081113;28;20024;-80
2021/07/28 14:03:45;;;;;;;4.65;3.45;;;;;;;;;;5090382;28;20029;-81
2021/07/28 14:06:11;;;;;;;4.35;3.85;;;;;;;;;;5098129;28;20020;-81
2021/07/28 14:08:37;;;;;;;4.75;4.25;;;;;;;;;;5093629;28;20024;-80
2021/07/28 14:11:08;;;;;;;4.72;4.10;;;;;;;;;;5097377;28;20055;-83
2021/07/28 14:13:34;;;;;;;8.60;4.03;;;;;;;;;;5093321;28;20027;-81
2021/07/28 14:16:00;;;;;;;4.30;3.35;;;;;;;;;;5089996;28;20100;-82
2021/07/28 14:18:26;;;;;;;6.68;3.95;;;;;;;;;;5102008;28;20333;-81
2021/07/28 14:20:53;;;;;;;4.40;4.00;;;;;;;;;;5091500;28;20024;-81
2021/07/28 14:23:19;;;;;;;3.60;3.30;;;;;;;;;;5088362;28;20020;-80
2021/07/28 14:25:45;;;;;;;4.03;3.63;;;;;;;;;;5099432;28;20028;-81
2021/07/28 14:28:11;;;;;;;3.97;3.67;;;;;;;;;;5094423;28;20158;-79
2021/07/28 14:30:37;;;;;;;3.78;3.47;;;;;;;;;;5081926;28;20035;-82
2021/07/28 14:33:03;;;;;;;3.63;3.33;;;;;;;;;;5095448;28;20093;-79
2021/07/28 14:35:29;;;;;;;5.90;3.70;;;;;;;;;;5099873;28;20043;-82
2021/07/28 14:37:55;;;;;;;4.80;4.03;;;;;;;;;;5084564;28;20094;-81
2021/07/28 14:40:22;;;;;;;3.75;3.45;;;;;;;;;;5084699;28;20031;-81
2021/07/28 14:42:48;;;;;;;3.58;3.28;;;;;;;;;;5088665;28;20097;-80
2021/07/28 14:45:14;;;;;;;3.88;3.58;;;;;;;;;;5088112;28;20476;-80
2021/07/28 14:47:43;;;;;;;3.47;3.17;;;;;;;;;;5089809;28;20115;-79